Quecreek, Pennsylvania
Current Conditions -  °F | °C
As of 5:55 AM on Friday 19 Dec 2014 (Local Time) from K2G9 Reporting Station
Overcast Overcast  
Wind Chill: 12°   Ceiling: 800
Heat Index: 23°   Visibility: 10mi
Dew Point: 21°   Wind: 10mph
Humidity: 93%   Direction: 280°W
Pressure: 30.05"   Gusts: NA
Location:  40.09°N, 79.08°W
Report Text: K2G9 191055Z AUTO 28009KT 10SM OVC008 M05/M06 A3005 RMK AO2
Loading
Personal Weather Stations






























Interactive Weather Map New forecast layout! Learn more

10-Day Weather Forecast

Advertisements
Track Severe Weather on mobile